Friday, May 25, 2018, 8:52 AM EDT
Back to Local

KSWF, Newburgh / Stewart

Location: New Windsor, NY, United States Lat: 41.5
Local Time: 8:52 AM EDT (12:52 GMT) Lon: -74.1
Time Zone: US/Eastern Elev: 492 ft

Show me the last for .
Show Decoded

2018-05-25 07:45 METAR KSWF 251145Z 25006KT 20SM SKC 19/12 A3004 =
2018-05-25 06:45 METAR KSWF 251045Z 25004KT 15SM SKC 15/12 A3005 =
2018-05-25 05:45 METAR KSWF 250945Z 25004KT 15SM SKC 15/11 A3005 =
2018-05-25 04:45 METAR KSWF 250845Z 23005KT 10SM SKC 16/11 A3004 =
2018-05-25 03:45 METAR KSWF 250745Z 23005KT 10SM SKC 17/11 A3005 =
2018-05-25 02:45 METAR KSWF 250645Z 29005KT 10SM SKC 17/10 A3006 =
2018-05-25 01:45 METAR KSWF 250545Z 29005KT 10SM SKC 16/11 A3007 =
2018-05-25 00:45 METAR KSWF 250445Z 24004KT 10SM SKC 15/11 A3008 =
2018-05-24 23:45 METAR KSWF 250345Z 29004KT 10SM SKC 16/12 A3008 =
2018-05-24 22:45 METAR KSWF 250245Z VRB04KT 10SM SKC 18/12 A3009 =
2018-05-24 21:45 METAR KSWF 250145Z VRB04KT 10SM SKC 19/11 A3008 =
2018-05-24 20:45 METAR KSWF 250045Z 00000KT 10SM SKC 21/11 A3007 =
2018-05-24 19:45 METAR KSWF 242345Z 00000KT 20SM SKC 26/08 A3006 =
2018-05-24 18:45 METAR KSWF 242245Z 00000KT 20SM SKC 28/07 A3006 =
2018-05-24 17:45 METAR KSWF 242145Z 00000KT 20SM SKC 27/08 A3006 =
2018-05-24 16:45 METAR KSWF 242045Z VRB03KT 20SM SKC 28/09 A3008 =
2018-05-24 15:45 METAR KSWF 241945Z VRB05KT 20SM SKC 27/09 A3010 =
2018-05-24 14:45 METAR KSWF 241845Z VRB05KT 20SM SKC 25/07 A3011 =
2018-05-24 13:45 METAR KSWF 241745Z VRB05KT 20SM SKC 25/07 A3013 =
2018-05-24 12:45 METAR KSWF 241645Z VRB05KT 20SM SKC 24/08 A3014 =
2018-05-24 11:45 METAR KSWF 241545Z VRB04KT 20SM SKC 24/05 A3015 =
2018-05-24 10:45 METAR KSWF 241445Z VRB04KT 20SM SKC 23/05 A3015 =
2018-05-24 09:45 METAR KSWF 241345Z VRB04KT 20SM SKC 22/05 A3016 =

Support USWX by starting your Amazon purchase here.